sensor_id;sensor_type;location;lat;lon;timestamp;P1;durP1;ratioP1;P2;durP2;ratioP2
39898;SDS011;25571;47.876;10.642;2022-08-21T00:00:39;1.98;;;0.77;;
39898;SDS011;25571;47.876;10.642;2022-08-21T00:03:08;0.80;;;0.80;;
39898;SDS011;25571;47.876;10.642;2022-08-21T00:05:39;1.95;;;0.80;;
39898;SDS011;25571;47.876;10.642;2022-08-21T00:08:07;0.80;;;0.75;;
39898;SDS011;25571;47.876;10.642;2022-08-21T00:10:34;1.75;;;0.80;;
39898;SDS011;25571;47.876;10.642;2022-08-21T00:13:00;0.75;;;0.70;;
39898;SDS011;25571;47.876;10.642;2022-08-21T00:15:28;0.95;;;0.85;;
39898;SDS011;25571;47.876;10.642;2022-08-21T00:17:55;0.60;;;0.60;;
39898;SDS011;25571;47.876;10.642;2022-08-21T00:20:22;0.60;;;0.60;;
39898;SDS011;25571;47.876;10.642;2022-08-21T00:22:48;1.40;;;0.65;;
39898;SDS011;25571;47.876;10.642;2022-08-21T00:25:15;0.80;;;0.80;;
39898;SDS011;25571;47.876;10.642;2022-08-21T00:27:42;0.60;;;0.60;;
39898;SDS011;25571;47.876;10.642;2022-08-21T00:30:09;1.15;;;0.60;;
39898;SDS011;25571;47.876;10.642;2022-08-21T00:32:36;1.10;;;0.70;;
39898;SDS011;25571;47.876;10.642;2022-08-21T00:35:04;0.55;;;0.55;;
39898;SDS011;25571;47.876;10.642;2022-08-21T00:39:58;1.40;;;0.60;;
39898;SDS011;25571;47.876;10.642;2022-08-21T00:42:23;0.60;;;0.60;;
39898;SDS011;25571;47.876;10.642;2022-08-21T00:44:49;1.05;;;0.68;;
39898;SDS011;25571;47.876;10.642;2022-08-21T00:47:16;0.70;;;0.70;;
39898;SDS011;25571;47.876;10.642;2022-08-21T00:49:43;0.60;;;0.60;;
39898;SDS011;25571;47.876;10.642;2022-08-21T00:52:11;0.95;;;0.70;;
39898;SDS011;25571;47.876;10.642;2022-08-21T00:54:43;0.68;;;0.68;;
39898;SDS011;25571;47.876;10.642;2022-08-21T00:57:13;0.70;;;0.60;;
39898;SDS011;25571;47.876;10.642;2022-08-21T00:59:43;0.45;;;0.45;;
39898;SDS011;25571;47.876;10.642;2022-08-21T01:04:37;1.08;;;0.70;;
39898;SDS011;25571;47.876;10.642;2022-08-21T01:07:03;0.70;;;0.70;;
39898;SDS011;25571;47.876;10.642;2022-08-21T01:09:29;0.40;;;0.40;;
39898;SDS011;25571;47.876;10.642;2022-08-21T01:11:55;0.77;;;0.57;;
39898;SDS011;25571;47.876;10.642;2022-08-21T01:14:20;0.80;;;0.80;;
39898;SDS011;25571;47.876;10.642;2022-08-21T01:16:47;0.50;;;0.50;;
39898;SDS011;25571;47.876;10.642;2022-08-21T01:19:14;0.50;;;0.50;;
39898;SDS011;25571;47.876;10.642;2022-08-21T01:21:43;1.25;;;1.15;;
39898;SDS011;25571;47.876;10.642;2022-08-21T01:24:08;0.63;;;0.50;;
39898;SDS011;25571;47.876;10.642;2022-08-21T01:26:35;0.50;;;0.50;;
39898;SDS011;25571;47.876;10.642;2022-08-21T01:31:35;1.98;;;0.50;;
39898;SDS011;25571;47.876;10.642;2022-08-21T01:34:02;0.77;;;0.60;;
39898;SDS011;25571;47.876;10.642;2022-08-21T01:36:28;0.50;;;0.50;;
39898;SDS011;25571;47.876;10.642;2022-08-21T01:38:54;0.55;;;0.55;;
39898;SDS011;25571;47.876;10.642;2022-08-21T01:41:20;2.53;;;0.60;;
39898;SDS011;25571;47.876;10.642;2022-08-21T01:43:46;0.45;;;0.45;;
39898;SDS011;25571;47.876;10.642;2022-08-21T01:46:12;0.40;;;0.40;;
39898;SDS011;25571;47.876;10.642;2022-08-21T01:48:38;0.40;;;0.40;;
39898;SDS011;25571;47.876;10.642;2022-08-21T01:51:04;0.50;;;0.50;;
39898;SDS011;25571;47.876;10.642;2022-08-21T01:53:30;0.55;;;0.55;;
39898;SDS011;25571;47.876;10.642;2022-08-21T01:55:59;1.65;;;0.50;;
39898;SDS011;25571;47.876;10.642;2022-08-21T01:58:25;0.65;;;0.60;;
39898;SDS011;25571;47.876;10.642;2022-08-21T02:00:50;0.47;;;0.40;;
39898;SDS011;25571;47.876;10.642;2022-08-21T02:03:16;0.30;;;0.30;;
39898;SDS011;25571;47.876;10.642;2022-08-21T02:05:41;0.70;;;0.68;;
39898;SDS011;25571;47.876;10.642;2022-08-21T02:08:07;0.50;;;0.50;;
39898;SDS011;25571;47.876;10.642;2022-08-21T02:10:32;0.32;;;0.32;;
39898;SDS011;25571;47.876;10.642;2022-08-21T02:12:59;0.50;;;0.50;;
39898;SDS011;25571;47.876;10.642;2022-08-21T02:15:25;0.40;;;0.40;;
39898;SDS011;25571;47.876;10.642;2022-08-21T02:17:57;0.60;;;0.60;;
39898;SDS011;25571;47.876;10.642;2022-08-21T02:20:26;0.50;;;0.50;;
39898;SDS011;25571;47.876;10.642;2022-08-21T02:22:56;0.40;;;0.40;;
39898;SDS011;25571;47.876;10.642;2022-08-21T02:25:22;0.40;;;0.40;;
39898;SDS011;25571;47.876;10.642;2022-08-21T02:27:49;2.35;;;0.50;;
39898;SDS011;25571;47.876;10.642;2022-08-21T02:30:29;0.50;;;0.50;;
39898;SDS011;25571;47.876;10.642;2022-08-21T02:32:56;0.70;;;0.63;;
39898;SDS011;25571;47.876;10.642;2022-08-21T02:35:22;0.60;;;0.50;;
39898;SDS011;25571;47.876;10.642;2022-08-21T02:37:52;0.50;;;0.50;;
39898;SDS011;25571;47.876;10.642;2022-08-21T02:40:31;1.13;;;0.70;;
39898;SDS011;25571;47.876;10.642;2022-08-21T02:45:24;0.60;;;0.40;;
39898;SDS011;25571;47.876;10.642;2022-08-21T02:47:55;0.80;;;0.80;;
39898;SDS011;25571;47.876;10.642;2022-08-21T02:50:27;0.63;;;0.60;;
39898;SDS011;25571;47.876;10.642;2022-08-21T02:55:22;1.42;;;0.52;;
39898;SDS011;25571;47.876;10.642;2022-08-21T02:57:49;0.55;;;0.50;;
39898;SDS011;25571;47.876;10.642;2022-08-21T03:00:15;0.50;;;0.50;;
39898;SDS011;25571;47.876;10.642;2022-08-21T03:02:41;1.10;;;0.40;;
39898;SDS011;25571;47.876;10.642;2022-08-21T03:05:08;0.47;;;0.47;;
39898;SDS011;25571;47.876;10.642;2022-08-21T03:07:35;0.80;;;0.50;;
39898;SDS011;25571;47.876;10.642;2022-08-21T03:10:01;0.40;;;0.40;;
39898;SDS011;25571;47.876;10.642;2022-08-21T03:12:28;0.40;;;0.40;;
39898;SDS011;25571;47.876;10.642;2022-08-21T03:14:54;0.40;;;0.40;;
39898;SDS011;25571;47.876;10.642;2022-08-21T03:17:19;0.63;;;0.40;;
39898;SDS011;25571;47.876;10.642;2022-08-21T03:19:45;0.50;;;0.50;;
39898;SDS011;25571;47.876;10.642;2022-08-21T03:22:10;0.50;;;0.50;;
39898;SDS011;25571;47.876;10.642;2022-08-21T03:24:36;0.40;;;0.40;;
39898;SDS011;25571;47.876;10.642;2022-08-21T03:27:02;1.33;;;0.70;;
39898;SDS011;25571;47.876;10.642;2022-08-21T03:29:28;0.80;;;0.60;;
39898;SDS011;25571;47.876;10.642;2022-08-21T03:31:54;0.73;;;0.70;;
39898;SDS011;25571;47.876;10.642;2022-08-21T03:34:20;1.50;;;0.50;;
39898;SDS011;25571;47.876;10.642;2022-08-21T03:36:46;0.43;;;0.43;;
39898;SDS011;25571;47.876;10.642;2022-08-21T03:39:13;0.63;;;0.60;;
39898;SDS011;25571;47.876;10.642;2022-08-21T03:41:40;1.30;;;0.50;;
39898;SDS011;25571;47.876;10.642;2022-08-21T03:44:05;0.70;;;0.60;;
39898;SDS011;25571;47.876;10.642;2022-08-21T03:46:31;0.82;;;0.60;;
39898;SDS011;25571;47.876;10.642;2022-08-21T03:48:56;0.70;;;0.65;;
39898;SDS011;25571;47.876;10.642;2022-08-21T03:51:22;0.45;;;0.45;;
39898;SDS011;25571;47.876;10.642;2022-08-21T03:53:47;0.40;;;0.40;;
39898;SDS011;25571;47.876;10.642;2022-08-21T03:56:13;1.00;;;0.82;;
39898;SDS011;25571;47.876;10.642;2022-08-21T03:58:40;0.50;;;0.50;;
39898;SDS011;25571;47.876;10.642;2022-08-21T04:01:06;1.23;;;0.50;;
39898;SDS011;25571;47.876;10.642;2022-08-21T04:03:32;0.60;;;0.60;;
39898;SDS011;25571;47.876;10.642;2022-08-21T04:06:00;0.50;;;0.50;;
39898;SDS011;25571;47.876;10.642;2022-08-21T04:08:25;0.43;;;0.43;;
39898;SDS011;25571;47.876;10.642;2022-08-21T04:10:52;0.50;;;0.40;;
39898;SDS011;25571;47.876;10.642;2022-08-21T04:13:20;0.50;;;0.50;;
39898;SDS011;25571;47.876;10.642;2022-08-21T04:15:46;0.60;;;0.60;;
39898;SDS011;25571;47.876;10.642;2022-08-21T04:18:13;0.63;;;0.63;;
39898;SDS011;25571;47.876;10.642;2022-08-21T04:20:39;0.40;;;0.40;;
39898;SDS011;25571;47.876;10.642;2022-08-21T04:23:06;0.50;;;0.50;;
39898;SDS011;25571;47.876;10.642;2022-08-21T04:25:31;0.60;;;0.60;;
39898;SDS011;25571;47.876;10.642;2022-08-21T04:27:57;0.50;;;0.50;;
39898;SDS011;25571;47.876;10.642;2022-08-21T04:30:23;0.70;;;0.70;;
39898;SDS011;25571;47.876;10.642;2022-08-21T04:32:49;0.47;;;0.47;;
39898;SDS011;25571;47.876;10.642;2022-08-21T04:35:17;0.98;;;0.50;;
39898;SDS011;25571;47.876;10.642;2022-08-21T04:37:44;0.63;;;0.60;;
39898;SDS011;25571;47.876;10.642;2022-08-21T04:40:10;0.93;;;0.50;;
39898;SDS011;25571;47.876;10.642;2022-08-21T04:42:41;0.40;;;0.40;;
39898;SDS011;25571;47.876;10.642;2022-08-21T04:45:09;0.40;;;0.40;;
39898;SDS011;25571;47.876;10.642;2022-08-21T04:47:41;0.50;;;0.50;;
39898;SDS011;25571;47.876;10.642;2022-08-21T04:50:06;0.40;;;0.32;;
39898;SDS011;25571;47.876;10.642;2022-08-21T04:52:32;0.40;;;0.40;;
39898;SDS011;25571;47.876;10.642;2022-08-21T04:54:58;0.50;;;0.40;;
39898;SDS011;25571;47.876;10.642;2022-08-21T04:57:25;0.77;;;0.70;;
39898;SDS011;25571;47.876;10.642;2022-08-21T04:59:51;0.30;;;0.30;;
39898;SDS011;25571;47.876;10.642;2022-08-21T05:02:17;0.47;;;0.40;;
39898;SDS011;25571;47.876;10.642;2022-08-21T05:04:44;0.40;;;0.40;;
39898;SDS011;25571;47.876;10.642;2022-08-21T05:07:15;0.70;;;0.43;;
39898;SDS011;25571;47.876;10.642;2022-08-21T05:09:44;0.38;;;0.38;;
39898;SDS011;25571;47.876;10.642;2022-08-21T05:12:10;0.40;;;0.40;;
39898;SDS011;25571;47.876;10.642;2022-08-21T05:14:36;0.50;;;0.50;;
39898;SDS011;25571;47.876;10.642;2022-08-21T05:17:02;0.63;;;0.40;;
39898;SDS011;25571;47.876;10.642;2022-08-21T05:19:29;0.40;;;0.40;;
39898;SDS011;25571;47.876;10.642;2022-08-21T05:21:54;1.02;;;0.50;;
39898;SDS011;25571;47.876;10.642;2022-08-21T05:24:20;0.50;;;0.50;;
39898;SDS011;25571;47.876;10.642;2022-08-21T05:26:46;0.75;;;0.52;;
39898;SDS011;25571;47.876;10.642;2022-08-21T05:29:12;0.52;;;0.50;;
39898;SDS011;25571;47.876;10.642;2022-08-21T05:31:39;1.08;;;0.60;;
39898;SDS011;25571;47.876;10.642;2022-08-21T05:34:04;0.70;;;0.50;;
39898;SDS011;25571;47.876;10.642;2022-08-21T05:36:30;1.13;;;0.50;;
39898;SDS011;25571;47.876;10.642;2022-08-21T05:38:56;0.55;;;0.55;;
39898;SDS011;25571;47.876;10.642;2022-08-21T05:41:22;0.47;;;0.47;;
39898;SDS011;25571;47.876;10.642;2022-08-21T05:43:47;0.40;;;0.40;;
39898;SDS011;25571;47.876;10.642;2022-08-21T05:46:14;2.65;;;0.45;;
39898;SDS011;25571;47.876;10.642;2022-08-21T05:48:40;0.52;;;0.47;;
39898;SDS011;25571;47.876;10.642;2022-08-21T05:51:07;0.47;;;0.47;;
39898;SDS011;25571;47.876;10.642;2022-08-21T05:53:35;0.50;;;0.50;;
39898;SDS011;25571;47.876;10.642;2022-08-21T05:56:01;0.85;;;0.47;;
39898;SDS011;25571;47.876;10.642;2022-08-21T05:58:29;1.08;;;0.57;;
39898;SDS011;25571;47.876;10.642;2022-08-21T06:00:55;0.50;;;0.50;;
39898;SDS011;25571;47.876;10.642;2022-08-21T06:03:24;0.50;;;0.40;;
39898;SDS011;25571;47.876;10.642;2022-08-21T06:05:52;0.45;;;0.45;;
39898;SDS011;25571;47.876;10.642;2022-08-21T06:08:18;0.88;;;0.70;;
39898;SDS011;25571;47.876;10.642;2022-08-21T06:10:46;0.60;;;0.50;;
39898;SDS011;25571;47.876;10.642;2022-08-21T06:13:12;0.70;;;0.68;;
39898;SDS011;25571;47.876;10.642;2022-08-21T06:15:38;0.63;;;0.63;;
39898;SDS011;25571;47.876;10.642;2022-08-21T06:18:04;0.60;;;0.60;;
39898;SDS011;25571;47.876;10.642;2022-08-21T06:20:30;0.50;;;0.50;;
39898;SDS011;25571;47.876;10.642;2022-08-21T06:22:57;0.68;;;0.60;;
39898;SDS011;25571;47.876;10.642;2022-08-21T06:25:23;0.40;;;0.40;;
39898;SDS011;25571;47.876;10.642;2022-08-21T06:27:49;0.60;;;0.60;;
39898;SDS011;25571;47.876;10.642;2022-08-21T06:30:15;0.57;;;0.57;;
39898;SDS011;25571;47.876;10.642;2022-08-21T06:32:41;1.25;;;0.50;;
39898;SDS011;25571;47.876;10.642;2022-08-21T06:35:06;0.50;;;0.50;;
39898;SDS011;25571;47.876;10.642;2022-08-21T06:37:33;0.85;;;0.75;;
39898;SDS011;25571;47.876;10.642;2022-08-21T06:39:58;1.30;;;0.50;;
39898;SDS011;25571;47.876;10.642;2022-08-21T06:42:24;0.70;;;0.70;;
39898;SDS011;25571;47.876;10.642;2022-08-21T06:44:50;0.50;;;0.50;;
39898;SDS011;25571;47.876;10.642;2022-08-21T06:47:15;0.70;;;0.57;;
39898;SDS011;25571;47.876;10.642;2022-08-21T06:49:41;0.50;;;0.50;;
39898;SDS011;25571;47.876;10.642;2022-08-21T06:52:10;0.57;;;0.57;;
39898;SDS011;25571;47.876;10.642;2022-08-21T06:54:37;0.50;;;0.50;;
39898;SDS011;25571;47.876;10.642;2022-08-21T06:57:04;0.40;;;0.40;;
39898;SDS011;25571;47.876;10.642;2022-08-21T06:59:30;0.55;;;0.50;;
39898;SDS011;25571;47.876;10.642;2022-08-21T07:01:57;0.65;;;0.63;;
39898;SDS011;25571;47.876;10.642;2022-08-21T07:04:23;0.60;;;0.60;;
39898;SDS011;25571;47.876;10.642;2022-08-21T07:06:49;0.80;;;0.40;;
39898;SDS011;25571;47.876;10.642;2022-08-21T07:09:14;0.45;;;0.45;;
39898;SDS011;25571;47.876;10.642;2022-08-21T07:11:40;0.65;;;0.65;;
39898;SDS011;25571;47.876;10.642;2022-08-21T07:14:06;1.20;;;0.90;;
39898;SDS011;25571;47.876;10.642;2022-08-21T07:16:31;0.70;;;0.57;;
39898;SDS011;25571;47.876;10.642;2022-08-21T07:18:57;0.50;;;0.50;;
39898;SDS011;25571;47.876;10.642;2022-08-21T07:21:22;0.60;;;0.60;;
39898;SDS011;25571;47.876;10.642;2022-08-21T07:23:49;1.10;;;0.50;;
39898;SDS011;25571;47.876;10.642;2022-08-21T07:26:16;0.95;;;0.80;;
39898;SDS011;25571;47.876;10.642;2022-08-21T07:31:10;0.50;;;0.50;;
39898;SDS011;25571;47.876;10.642;2022-08-21T07:33:39;0.50;;;0.43;;
39898;SDS011;25571;47.876;10.642;2022-08-21T07:36:06;0.98;;;0.60;;
39898;SDS011;25571;47.876;10.642;2022-08-21T07:38:31;1.25;;;0.85;;
39898;SDS011;25571;47.876;10.642;2022-08-21T07:40:57;0.70;;;0.70;;
39898;SDS011;25571;47.876;10.642;2022-08-21T07:43:26;0.98;;;0.73;;
39898;SDS011;25571;47.876;10.642;2022-08-21T07:45:52;1.08;;;0.60;;
39898;SDS011;25571;47.876;10.642;2022-08-21T07:48:22;1.60;;;0.93;;
39898;SDS011;25571;47.876;10.642;2022-08-21T07:50:48;0.70;;;0.70;;
39898;SDS011;25571;47.876;10.642;2022-08-21T07:53:14;0.98;;;0.75;;
39898;SDS011;25571;47.876;10.642;2022-08-21T07:55:40;1.20;;;0.80;;
39898;SDS011;25571;47.876;10.642;2022-08-21T07:58:06;1.45;;;0.95;;
39898;SDS011;25571;47.876;10.642;2022-08-21T08:00:32;1.38;;;0.80;;
39898;SDS011;25571;47.876;10.642;2022-08-21T08:02:58;0.70;;;0.70;;
39898;SDS011;25571;47.876;10.642;2022-08-21T08:05:25;0.77;;;0.77;;
39898;SDS011;25571;47.876;10.642;2022-08-21T08:07:53;2.28;;;1.23;;
39898;SDS011;25571;47.876;10.642;2022-08-21T08:10:20;0.93;;;0.70;;
39898;SDS011;25571;47.876;10.642;2022-08-21T08:12:47;0.77;;;0.77;;
39898;SDS011;25571;47.876;10.642;2022-08-21T08:15:17;1.00;;;0.90;;
39898;SDS011;25571;47.876;10.642;2022-08-21T08:17:45;1.15;;;0.80;;
39898;SDS011;25571;47.876;10.642;2022-08-21T08:20:12;2.35;;;0.95;;
39898;SDS011;25571;47.876;10.642;2022-08-21T08:22:39;1.15;;;1.02;;
39898;SDS011;25571;47.876;10.642;2022-08-21T08:25:06;0.70;;;0.70;;
39898;SDS011;25571;47.876;10.642;2022-08-21T08:27:33;2.97;;;1.00;;
39898;SDS011;25571;47.876;10.642;2022-08-21T08:29:59;1.77;;;1.27;;
39898;SDS011;25571;47.876;10.642;2022-08-21T08:32:24;0.98;;;0.88;;
39898;SDS011;25571;47.876;10.642;2022-08-21T08:34:50;1.23;;;1.02;;
39898;SDS011;25571;47.876;10.642;2022-08-21T08:37:16;1.75;;;1.00;;
39898;SDS011;25571;47.876;10.642;2022-08-21T08:39:43;1.10;;;0.73;;
39898;SDS011;25571;47.876;10.642;2022-08-21T08:42:13;1.92;;;0.90;;
39898;SDS011;25571;47.876;10.642;2022-08-21T08:44:49;3.63;;;1.10;;
39898;SDS011;25571;47.876;10.642;2022-08-21T08:47:29;2.58;;;1.17;;
39898;SDS011;25571;47.876;10.642;2022-08-21T08:52:36;3.08;;;1.33;;
39898;SDS011;25571;47.876;10.642;2022-08-21T08:55:12;3.17;;;1.10;;
39898;SDS011;25571;47.876;10.642;2022-08-21T08:57:46;1.85;;;1.05;;
39898;SDS011;25571;47.876;10.642;2022-08-21T09:00:14;1.90;;;1.00;;
39898;SDS011;25571;47.876;10.642;2022-08-21T09:02:42;2.35;;;0.82;;
39898;SDS011;25571;47.876;10.642;2022-08-21T09:05:14;2.15;;;1.10;;
39898;SDS011;25571;47.876;10.642;2022-08-21T09:08:08;1.17;;;1.08;;
39898;SDS011;25571;47.876;10.642;2022-08-21T09:10:57;3.17;;;1.02;;
39898;SDS011;25571;47.876;10.642;2022-08-21T09:16:11;1.90;;;1.00;;
39898;SDS011;25571;47.876;10.642;2022-08-21T09:22:09;1.98;;;0.80;;
39898;SDS011;25571;47.876;10.642;2022-08-21T09:25:02;3.10;;;1.25;;
39898;SDS011;25571;47.876;10.642;2022-08-21T09:27:40;2.53;;;1.13;;
39898;SDS011;25571;47.876;10.642;2022-08-21T09:30:07;1.92;;;1.00;;
39898;SDS011;25571;47.876;10.642;2022-08-21T09:32:35;3.65;;;1.30;;
39898;SDS011;25571;47.876;10.642;2022-08-21T09:43:01;0.90;;;0.80;;
39898;SDS011;25571;47.876;10.642;2022-08-21T09:45:31;2.00;;;0.90;;
39898;SDS011;25571;47.876;10.642;2022-08-21T09:50:46;1.45;;;1.00;;
39898;SDS011;25571;47.876;10.642;2022-08-21T09:53:20;2.05;;;1.00;;
39898;SDS011;25571;47.876;10.642;2022-08-21T09:56:04;1.90;;;0.90;;
39898;SDS011;25571;47.876;10.642;2022-08-21T09:58:59;0.98;;;0.80;;
39898;SDS011;25571;47.876;10.642;2022-08-21T10:01:25;1.42;;;1.10;;
39898;SDS011;25571;47.876;10.642;2022-08-21T10:04:07;1.05;;;0.88;;
39898;SDS011;25571;47.876;10.642;2022-08-21T10:06:33;1.33;;;0.93;;
39898;SDS011;25571;47.876;10.642;2022-08-21T10:09:04;1.95;;;1.10;;
39898;SDS011;25571;47.876;10.642;2022-08-21T10:11:32;1.42;;;1.10;;
39898;SDS011;25571;47.876;10.642;2022-08-21T10:16:40;0.93;;;0.80;;
39898;SDS011;25571;47.876;10.642;2022-08-21T10:19:51;2.33;;;0.90;;
39898;SDS011;25571;47.876;10.642;2022-08-21T10:33:26;1.30;;;1.10;;
39898;SDS011;25571;47.876;10.642;2022-08-21T10:35:59;2.00;;;1.50;;
39898;SDS011;25571;47.876;10.642;2022-08-21T10:46:53;1.50;;;1.10;;
39898;SDS011;25571;47.876;10.642;2022-08-21T10:49:41;2.08;;;1.10;;
39898;SDS011;25571;47.876;10.642;2022-08-21T10:54:54;1.55;;;1.33;;
39898;SDS011;25571;47.876;10.642;2022-08-21T10:57:27;1.20;;;1.10;;
39898;SDS011;25571;47.876;10.642;2022-08-21T11:00:16;0.88;;;0.70;;
39898;SDS011;25571;47.876;10.642;2022-08-21T11:08:19;1.27;;;1.08;;
39898;SDS011;25571;47.876;10.642;2022-08-21T11:11:07;1.48;;;1.38;;
39898;SDS011;25571;47.876;10.642;2022-08-21T11:13:41;1.52;;;1.42;;
39898;SDS011;25571;47.876;10.642;2022-08-21T11:16:14;1.45;;;1.35;;
39898;SDS011;25571;47.876;10.642;2022-08-21T11:19:06;3.55;;;1.58;;
39898;SDS011;25571;47.876;10.642;2022-08-21T11:27:05;1.50;;;1.40;;
39898;SDS011;25571;47.876;10.642;2022-08-21T11:29:55;1.52;;;1.35;;
39898;SDS011;25571;47.876;10.642;2022-08-21T11:32:27;2.63;;;1.42;;
39898;SDS011;25571;47.876;10.642;2022-08-21T11:43:43;3.03;;;1.48;;
39898;SDS011;25571;47.876;10.642;2022-08-21T11:46:33;2.25;;;1.52;;
39898;SDS011;25571;47.876;10.642;2022-08-21T11:49:11;2.65;;;1.30;;
39898;SDS011;25571;47.876;10.642;2022-08-21T11:55:00;1.13;;;0.93;;
39898;SDS011;25571;47.876;10.642;2022-08-21T11:57:51;1.37;;;1.27;;
39898;SDS011;25571;47.876;10.642;2022-08-21T12:00:35;1.60;;;1.50;;
39898;SDS011;25571;47.876;10.642;2022-08-21T12:03:10;2.25;;;1.50;;
39898;SDS011;25571;47.876;10.642;2022-08-21T12:05:40;2.10;;;1.90;;
39898;SDS011;25571;47.876;10.642;2022-08-21T12:10:39;4.53;;;1.80;;
39898;SDS011;25571;47.876;10.642;2022-08-21T12:13:20;1.98;;;1.50;;
39898;SDS011;25571;47.876;10.642;2022-08-21T12:15:48;1.40;;;1.30;;
39898;SDS011;25571;47.876;10.642;2022-08-21T12:18:22;1.50;;;1.38;;
39898;SDS011;25571;47.876;10.642;2022-08-21T12:20:59;1.50;;;1.40;;
39898;SDS011;25571;47.876;10.642;2022-08-21T12:27:27;2.05;;;1.17;;
39898;SDS011;25571;47.876;10.642;2022-08-21T12:30:05;1.40;;;1.30;;
39898;SDS011;25571;47.876;10.642;2022-08-21T12:32:45;1.77;;;1.30;;
39898;SDS011;25571;47.876;10.642;2022-08-21T12:35:20;1.30;;;1.15;;
39898;SDS011;25571;47.876;10.642;2022-08-21T12:37:52;1.50;;;1.40;;
39898;SDS011;25571;47.876;10.642;2022-08-21T12:40:28;2.05;;;1.30;;
39898;SDS011;25571;47.876;10.642;2022-08-21T12:42:58;1.50;;;1.25;;
39898;SDS011;25571;47.876;10.642;2022-08-21T12:45:33;1.30;;;1.20;;
39898;SDS011;25571;47.876;10.642;2022-08-21T12:48:17;1.65;;;1.38;;
39898;SDS011;25571;47.876;10.642;2022-08-21T12:51:13;1.80;;;1.35;;
39898;SDS011;25571;47.876;10.642;2022-08-21T12:53:49;1.48;;;1.10;;
39898;SDS011;25571;47.876;10.642;2022-08-21T12:56:23;1.80;;;1.20;;
39898;SDS011;25571;47.876;10.642;2022-08-21T12:59:00;1.00;;;1.00;;
39898;SDS011;25571;47.876;10.642;2022-08-21T13:04:06;1.65;;;1.30;;
39898;SDS011;25571;47.876;10.642;2022-08-21T13:06:43;1.70;;;0.93;;
39898;SDS011;25571;47.876;10.642;2022-08-21T13:09:11;1.00;;;0.90;;
39898;SDS011;25571;47.876;10.642;2022-08-21T13:11:40;1.00;;;0.85;;
39898;SDS011;25571;47.876;10.642;2022-08-21T13:14:10;1.50;;;1.15;;
39898;SDS011;25571;47.876;10.642;2022-08-21T13:16:47;1.33;;;1.20;;
39898;SDS011;25571;47.876;10.642;2022-08-21T13:19:19;1.02;;;0.93;;
39898;SDS011;25571;47.876;10.642;2022-08-21T13:21:45;1.50;;;1.30;;
39898;SDS011;25571;47.876;10.642;2022-08-21T13:24:16;2.33;;;1.35;;
39898;SDS011;25571;47.876;10.642;2022-08-21T13:26:43;1.58;;;1.15;;
39898;SDS011;25571;47.876;10.642;2022-08-21T13:29:10;1.20;;;0.90;;
39898;SDS011;25571;47.876;10.642;2022-08-21T13:31:40;1.20;;;1.00;;
39898;SDS011;25571;47.876;10.642;2022-08-21T13:34:13;1.92;;;1.25;;
39898;SDS011;25571;47.876;10.642;2022-08-21T13:36:40;1.48;;;1.38;;
39898;SDS011;25571;47.876;10.642;2022-08-21T13:39:08;2.15;;;1.40;;
39898;SDS011;25571;47.876;10.642;2022-08-21T13:41:36;1.52;;;1.02;;
39898;SDS011;25571;47.876;10.642;2022-08-21T13:44:16;1.38;;;1.10;;
39898;SDS011;25571;47.876;10.642;2022-08-21T13:46:42;1.48;;;0.98;;
39898;SDS011;25571;47.876;10.642;2022-08-21T13:49:09;1.50;;;1.15;;
39898;SDS011;25571;47.876;10.642;2022-08-21T13:51:35;1.10;;;1.00;;
39898;SDS011;25571;47.876;10.642;2022-08-21T13:54:02;1.45;;;1.10;;
39898;SDS011;25571;47.876;10.642;2022-08-21T13:56:58;1.60;;;1.20;;
39898;SDS011;25571;47.876;10.642;2022-08-21T13:59:32;1.15;;;1.05;;
39898;SDS011;25571;47.876;10.642;2022-08-21T14:02:01;2.03;;;1.30;;
39898;SDS011;25571;47.876;10.642;2022-08-21T14:04:39;1.98;;;1.20;;
39898;SDS011;25571;47.876;10.642;2022-08-21T14:07:33;1.50;;;1.25;;
39898;SDS011;25571;47.876;10.642;2022-08-21T14:10:04;1.23;;;1.02;;
39898;SDS011;25571;47.876;10.642;2022-08-21T14:12:50;1.75;;;1.20;;
39898;SDS011;25571;47.876;10.642;2022-08-21T14:15:22;1.63;;;1.35;;
39898;SDS011;25571;47.876;10.642;2022-08-21T14:17:51;1.00;;;1.00;;
39898;SDS011;25571;47.876;10.642;2022-08-21T14:20:28;1.30;;;1.20;;
39898;SDS011;25571;47.876;10.642;2022-08-21T14:22:59;1.10;;;1.00;;
39898;SDS011;25571;47.876;10.642;2022-08-21T14:27:52;1.65;;;1.40;;
39898;SDS011;25571;47.876;10.642;2022-08-21T14:32:56;1.50;;;1.35;;
39898;SDS011;25571;47.876;10.642;2022-08-21T14:35:22;1.40;;;1.30;;
39898;SDS011;25571;47.876;10.642;2022-08-21T14:37:48;1.70;;;1.23;;
39898;SDS011;25571;47.876;10.642;2022-08-21T14:40:18;1.38;;;1.27;;
39898;SDS011;25571;47.876;10.642;2022-08-21T14:42:45;3.05;;;1.13;;
39898;SDS011;25571;47.876;10.642;2022-08-21T14:45:15;1.48;;;1.38;;
39898;SDS011;25571;47.876;10.642;2022-08-21T14:47:42;1.65;;;1.50;;
39898;SDS011;25571;47.876;10.642;2022-08-21T14:50:09;1.52;;;1.23;;
39898;SDS011;25571;47.876;10.642;2022-08-21T14:52:36;1.60;;;1.40;;
39898;SDS011;25571;47.876;10.642;2022-08-21T14:55:02;1.30;;;1.20;;
39898;SDS011;25571;47.876;10.642;2022-08-21T14:57:30;1.35;;;1.25;;
39898;SDS011;25571;47.876;10.642;2022-08-21T14:59:56;1.58;;;1.33;;
39898;SDS011;25571;47.876;10.642;2022-08-21T15:02:22;1.25;;;1.15;;
39898;SDS011;25571;47.876;10.642;2022-08-21T15:04:47;3.08;;;1.40;;
39898;SDS011;25571;47.876;10.642;2022-08-21T15:07:13;1.92;;;1.50;;
39898;SDS011;25571;47.876;10.642;2022-08-21T15:09:39;2.20;;;1.45;;
39898;SDS011;25571;47.876;10.642;2022-08-21T15:12:04;1.48;;;1.30;;
39898;SDS011;25571;47.876;10.642;2022-08-21T15:14:32;1.60;;;1.50;;
39898;SDS011;25571;47.876;10.642;2022-08-21T15:19:26;2.22;;;1.40;;
39898;SDS011;25571;47.876;10.642;2022-08-21T15:21:52;1.40;;;1.23;;
39898;SDS011;25571;47.876;10.642;2022-08-21T15:24:18;1.40;;;1.30;;
39898;SDS011;25571;47.876;10.642;2022-08-21T15:26:43;1.77;;;1.40;;
39898;SDS011;25571;47.876;10.642;2022-08-21T15:29:10;1.52;;;1.40;;
39898;SDS011;25571;47.876;10.642;2022-08-21T15:31:35;1.48;;;1.38;;
39898;SDS011;25571;47.876;10.642;2022-08-21T15:34:01;1.20;;;1.10;;
39898;SDS011;25571;47.876;10.642;2022-08-21T15:36:27;1.63;;;1.40;;
39898;SDS011;25571;47.876;10.642;2022-08-21T15:38:53;2.38;;;1.48;;
39898;SDS011;25571;47.876;10.642;2022-08-21T15:41:19;1.50;;;1.40;;
39898;SDS011;25571;47.876;10.642;2022-08-21T15:43:45;1.33;;;1.23;;
39898;SDS011;25571;47.876;10.642;2022-08-21T15:46:15;1.35;;;1.25;;
39898;SDS011;25571;47.876;10.642;2022-08-21T15:48:43;1.52;;;1.33;;
39898;SDS011;25571;47.876;10.642;2022-08-21T15:51:09;2.22;;;1.23;;
39898;SDS011;25571;47.876;10.642;2022-08-21T15:53:36;1.40;;;1.20;;
39898;SDS011;25571;47.876;10.642;2022-08-21T15:56:04;1.23;;;1.13;;
39898;SDS011;25571;47.876;10.642;2022-08-21T15:58:30;1.35;;;1.20;;
39898;SDS011;25571;47.876;10.642;2022-08-21T16:00:58;1.48;;;1.30;;
39898;SDS011;25571;47.876;10.642;2022-08-21T16:03:25;1.60;;;1.40;;
39898;SDS011;25571;47.876;10.642;2022-08-21T16:05:51;2.13;;;1.52;;
39898;SDS011;25571;47.876;10.642;2022-08-21T16:08:18;1.42;;;1.30;;
39898;SDS011;25571;47.876;10.642;2022-08-21T16:10:45;2.67;;;1.50;;
39898;SDS011;25571;47.876;10.642;2022-08-21T16:13:32;1.40;;;1.30;;
39898;SDS011;25571;47.876;10.642;2022-08-21T16:16:04;1.58;;;1.20;;
39898;SDS011;25571;47.876;10.642;2022-08-21T16:18:30;2.05;;;1.30;;
39898;SDS011;25571;47.876;10.642;2022-08-21T16:20:56;1.50;;;1.40;;
39898;SDS011;25571;47.876;10.642;2022-08-21T16:23:21;1.60;;;1.50;;